Time;durP1;ratioP1;P1;durP2;ratioP2;P2;SDS_P1;SDS_P2;PMS_P1;PMS_P2;Temp;Humidity;BMP_temperature;BMP_pressure;BME280_temperature;BME280_humidity;BME280_pressure;Samples;Min_cycle;Max_cycle;Signal;HPM_P1;HPM_P2
2024/01/01 00:02:20;;;;;;;136.00;63.47;;;;;;;;;;5065241;28;20075;-57
2024/01/01 00:04:45;;;;;;;143.13;68.47;;;;;;;;;;5064431;28;20043;-60
2024/01/01 00:07:11;;;;;;;155.30;77.30;;;;;;;;;;5050560;28;20036;-60
2024/01/01 00:09:36;;;;;;;151.30;76.32;;;;;;;;;;5059291;28;20025;-59
2024/01/01 00:12:01;;;;;;;128.43;63.33;;;;;;;;;;5067755;28;20020;-59
2024/01/01 00:14:26;;;;;;;105.40;51.00;;;;;;;;;;5065231;28;20036;-60
2024/01/01 00:16:52;;;;;;;110.38;55.60;;;;;;;;;;5056344;28;20747;-60
2024/01/01 00:19:17;;;;;;;107.43;52.25;;;;;;;;;;5086707;28;20059;-60
2024/01/01 00:21:43;;;;;;;109.25;55.78;;;;;;;;;;5070048;28;20388;-59
2024/01/01 00:24:08;;;;;;;108.25;51.78;;;;;;;;;;5055383;28;20025;-59
2024/01/01 00:26:33;;;;;;;103.77;49.50;;;;;;;;;;5055549;28;20444;-59
2024/01/01 00:28:58;;;;;;;117.63;55.35;;;;;;;;;;5069563;28;20487;-59
2024/01/01 00:31:23;;;;;;;104.47;50.80;;;;;;;;;;5064767;28;20031;-59
2024/01/01 00:33:48;;;;;;;71.03;34.03;;;;;;;;;;5049569;28;20067;-59
2024/01/01 00:36:14;;;;;;;78.60;37.38;;;;;;;;;;5049781;28;20057;-58
2024/01/01 00:38:39;;;;;;;75.50;32.40;;;;;;;;;;5049566;28;20086;-58
2024/01/01 00:41:04;;;;;;;69.38;31.13;;;;;;;;;;5067267;28;20051;-59
2024/01/01 00:43:31;;;;;;;58.45;27.38;;;;;;;;;;5060495;28;20129;-59
2024/01/01 00:45:56;;;;;;;63.92;29.90;;;;;;;;;;5057097;28;20017;-59
2024/01/01 00:48:21;;;;;;;57.80;26.97;;;;;;;;;;5062718;28;20036;-58
2024/01/01 00:50:46;;;;;;;69.90;34.30;;;;;;;;;;5049123;28;20079;-59
2024/01/01 00:53:11;;;;;;;71.90;35.07;;;;;;;;;;5049143;28;20618;-58
2024/01/01 00:55:36;;;;;;;85.47;37.60;;;;;;;;;;5065031;28;20024;-58
2024/01/01 00:58:02;;;;;;;84.82;38.35;;;;;;;;;;5064133;28;20055;-58
2024/01/01 01:00:27;;;;;;;73.00;35.63;;;;;;;;;;5061240;28;20427;-59
2024/01/01 01:02:52;;;;;;;75.67;35.63;;;;;;;;;;5057292;28;20021;-59
2024/01/01 01:05:19;;;;;;;74.83;33.43;;;;;;;;;;5064816;28;20360;-59
2024/01/01 01:07:44;;;;;;;;;;;;;;;;;;5052263;28;20024;-58
2024/01/01 01:10:09;;;;;;;68.68;30.88;;;;;;;;;;5058350;28;19939;-59
2024/01/01 01:12:34;;;;;;;64.32;30.67;;;;;;;;;;5061644;28;20107;-58
2024/01/01 01:14:59;;;;;;;55.40;25.30;;;;;;;;;;5068065;28;20488;-58
2024/01/01 01:17:24;;;;;;;50.60;23.13;;;;;;;;;;5067508;28;20051;-58
2024/01/01 01:19:50;;;;;;;52.33;24.02;;;;;;;;;;5059568;28;20020;-58
2024/01/01 01:22:15;;;;;;;59.45;24.92;;;;;;;;;;5057381;28;20021;-59
2024/01/01 01:24:40;;;;;;;50.00;23.10;;;;;;;;;;5061717;28;20047;-58
2024/01/01 01:27:05;;;;;;;50.30;22.75;;;;;;;;;;5065976;28;20561;-58
2024/01/01 01:29:30;;;;;;;52.60;23.20;;;;;;;;;;5062250;28;20031;-59
2024/01/01 01:31:56;;;;;;;50.47;22.90;;;;;;;;;;5071319;28;20021;-59
2024/01/01 01:34:22;;;;;;;51.40;23.60;;;;;;;;;;5071466;28;20527;-59
2024/01/01 01:36:47;;;;;;;47.95;22.80;;;;;;;;;;5070489;28;20016;-59
2024/01/01 01:39:12;;;;;;;52.70;24.73;;;;;;;;;;5071071;28;20121;-59
2024/01/01 01:41:38;;;;;;;46.25;21.52;;;;;;;;;;5064294;28;20028;-59
2024/01/01 01:44:03;;;;;;;46.00;21.35;;;;;;;;;;5071550;28;20070;-59
2024/01/01 01:46:28;;;;;;;49.95;21.38;;;;;;;;;;5064495;28;20504;-59
2024/01/01 01:48:54;;;;;;;44.57;20.30;;;;;;;;;;5071882;28;20029;-59
2024/01/01 01:51:19;;;;;;;43.38;20.95;;;;;;;;;;5075328;28;20024;-59
2024/01/01 01:53:44;;;;;;;49.77;20.70;;;;;;;;;;5091639;28;20146;-59
2024/01/01 01:56:11;;;;;;;46.50;20.53;;;;;;;;;;5057707;28;20020;-59
2024/01/01 01:58:36;;;;;;;46.50;21.27;;;;;;;;;;5053366;28;20082;-60
2024/01/01 02:01:01;;;;;;;45.27;21.07;;;;;;;;;;5069455;28;20431;-60
2024/01/01 02:03:26;;;;;;;44.70;18.88;;;;;;;;;;5056716;28;20029;-59
2024/01/01 02:05:54;;;;;;;42.40;17.93;;;;;;;;;;5054231;28;20032;-59
2024/01/01 02:08:20;;;;;;;39.63;17.92;;;;;;;;;;5072764;28;20387;-58
2024/01/01 02:10:45;;;;;;;42.53;17.50;;;;;;;;;;5072648;28;20020;-59
2024/01/01 02:13:23;;;;;;;40.88;16.85;;;;;;;;;;5059957;28;20485;-59
2024/01/01 02:15:49;;;;;;;44.03;16.65;;;;;;;;;;5066996;28;20039;-59
2024/01/01 02:18:14;;;;;;;36.20;15.77;;;;;;;;;;5071036;28;20016;-59
2024/01/01 02:20:39;;;;;;;35.33;15.75;;;;;;;;;;5071025;28;20039;-59
2024/01/01 02:23:04;;;;;;;37.97;17.10;;;;;;;;;;5070703;28;20073;-59
2024/01/01 02:25:29;;;;;;;40.50;15.48;;;;;;;;;;5071176;28;20020;-58
2024/01/01 02:27:54;;;;;;;40.45;17.33;;;;;;;;;;5071103;28;20032;-59
2024/01/01 02:30:20;;;;;;;41.50;16.13;;;;;;;;;;5070536;28;20468;-59
2024/01/01 02:32:45;;;;;;;38.30;16.73;;;;;;;;;;5062611;28;20055;-59
2024/01/01 02:35:10;;;;;;;38.20;16.02;;;;;;;;;;5071101;28;20020;-60
2024/01/01 02:37:35;;;;;;;35.92;15.38;;;;;;;;;;5071294;28;20035;-59
2024/01/01 02:40:03;;;;;;;33.37;14.23;;;;;;;;;;5071139;28;20063;-60
2024/01/01 02:42:29;;;;;;;37.35;14.55;;;;;;;;;;5070859;28;20032;-58
2024/01/01 02:44:54;;;;;;;31.95;14.20;;;;;;;;;;5052922;28;20017;-59
2024/01/01 02:47:19;;;;;;;29.80;13.73;;;;;;;;;;5060563;28;20024;-59
2024/01/01 02:49:44;;;;;;;33.58;13.80;;;;;;;;;;5070969;28;20063;-60
2024/01/01 02:52:09;;;;;;;33.88;13.30;;;;;;;;;;5069097;28;20028;-59
2024/01/01 02:54:35;;;;;;;31.27;13.75;;;;;;;;;;5070760;28;20033;-60
2024/01/01 02:57:00;;;;;;;33.25;13.32;;;;;;;;;;5070908;28;20085;-60
2024/01/01 02:59:25;;;;;;;32.87;13.40;;;;;;;;;;5071164;28;20028;-59
2024/01/01 03:01:50;;;;;;;29.55;11.82;;;;;;;;;;5076064;28;20480;-59
2024/01/01 03:04:15;;;;;;;32.90;13.27;;;;;;;;;;5068141;28;20016;-59
2024/01/01 03:06:40;;;;;;;29.40;12.43;;;;;;;;;;5070603;28;20017;-59
2024/01/01 03:09:07;;;;;;;32.28;12.07;;;;;;;;;;5070588;28;20087;-59
2024/01/01 03:11:33;;;;;;;30.52;12.35;;;;;;;;;;5067664;28;20068;-59
2024/01/01 03:13:58;;;;;;;31.30;13.37;;;;;;;;;;5070112;28;20031;-59
2024/01/01 03:16:23;;;;;;;28.65;11.35;;;;;;;;;;5074062;28;20027;-59
2024/01/01 03:18:48;;;;;;;31.17;12.15;;;;;;;;;;5062619;28;20024;-58
2024/01/01 03:21:13;;;;;;;31.75;12.48;;;;;;;;;;5074721;28;20107;-59
2024/01/01 03:23:38;;;;;;;26.83;11.05;;;;;;;;;;5066572;28;20032;-59
2024/01/01 03:26:04;;;;;;;29.10;11.23;;;;;;;;;;5070514;28;20027;-59
2024/01/01 03:28:29;;;;;;;29.95;12.30;;;;;;;;;;5069641;28;20526;-58
2024/01/01 03:30:55;;;;;;;24.58;10.32;;;;;;;;;;5070234;28;20016;-60
2024/01/01 03:33:20;;;;;;;25.73;10.52;;;;;;;;;;5070433;28;20092;-59
2024/01/01 03:35:45;;;;;;;26.13;10.07;;;;;;;;;;5071143;28;20016;-59
2024/01/01 03:38:10;;;;;;;33.00;11.40;;;;;;;;;;5070626;28;20012;-59
2024/01/01 03:40:35;;;;;;;27.20;10.30;;;;;;;;;;5070576;28;20020;-59
2024/01/01 03:43:01;;;;;;;26.10;10.80;;;;;;;;;;5071042;28;20029;-60
2024/01/01 03:45:26;;;;;;;28.27;12.10;;;;;;;;;;5090501;28;20617;-59
2024/01/01 03:47:51;;;;;;;29.10;12.00;;;;;;;;;;5088900;28;20023;-59
2024/01/01 03:50:19;;;;;;;28.73;11.00;;;;;;;;;;5063255;28;20024;-59
2024/01/01 03:52:44;;;;;;;23.42;9.88;;;;;;;;;;5069542;28;20506;-58
2024/01/01 03:55:09;;;;;;;25.63;11.70;;;;;;;;;;5086859;28;20443;-59
2024/01/01 03:57:35;;;;;;;27.87;10.60;;;;;;;;;;5093982;28;20027;-58
2024/01/01 04:00:01;;;;;;;27.05;10.93;;;;;;;;;;5094000;28;20483;-60
2024/01/01 04:02:26;;;;;;;27.63;11.27;;;;;;;;;;5081185;28;20090;-59
2024/01/01 04:04:52;;;;;;;28.98;11.77;;;;;;;;;;5066825;28;20051;-59
2024/01/01 04:07:17;;;;;;;26.48;11.13;;;;;;;;;;5073692;28;20017;-59
2024/01/01 04:09:42;;;;;;;24.90;11.50;;;;;;;;;;5068745;28;20396;-59
2024/01/01 04:12:07;;;;;;;28.85;10.32;;;;;;;;;;5051848;28;20912;-58
2024/01/01 04:14:33;;;;;;;29.08;10.82;;;;;;;;;;5075959;28;20036;-59
2024/01/01 04:16:58;;;;;;;30.53;10.67;;;;;;;;;;5093965;28;20024;-59
2024/01/01 04:19:24;;;;;;;25.67;11.10;;;;;;;;;;5093822;28;20379;-58
2024/01/01 04:21:49;;;;;;;26.38;11.07;;;;;;;;;;5071913;28;20953;-58
2024/01/01 04:24:14;;;;;;;25.23;10.10;;;;;;;;;;5069628;28;20039;-58
2024/01/01 04:26:39;;;;;;;23.83;10.13;;;;;;;;;;5073284;28;20368;-58
2024/01/01 04:29:05;;;;;;;24.17;9.90;;;;;;;;;;5071388;28;20056;-59
2024/01/01 04:31:30;;;;;;;26.03;10.03;;;;;;;;;;5073486;28;20039;-58
2024/01/01 04:33:55;;;;;;;25.73;9.40;;;;;;;;;;5079276;28;20480;-59
2024/01/01 04:36:21;;;;;;;22.48;9.15;;;;;;;;;;5093528;28;20473;-58
2024/01/01 04:38:46;;;;;;;23.63;9.63;;;;;;;;;;5070754;28;20032;-58
2024/01/01 04:41:11;;;;;;;24.33;9.20;;;;;;;;;;5071918;28;20024;-59
2024/01/01 04:43:38;;;;;;;24.75;10.13;;;;;;;;;;5070967;28;20442;-57
2024/01/01 04:46:03;;;;;;;25.00;9.98;;;;;;;;;;5073707;28;20051;-58
2024/01/01 04:48:28;;;;;;;24.63;10.07;;;;;;;;;;5072209;28;20055;-58
2024/01/01 04:50:54;;;;;;;25.97;10.23;;;;;;;;;;5072575;28;20495;-58
2024/01/01 04:53:19;;;;;;;24.95;10.10;;;;;;;;;;5071485;28;20028;-58
2024/01/01 04:55:44;;;;;;;26.05;9.98;;;;;;;;;;5072693;28;20059;-58
2024/01/01 04:58:09;;;;;;;28.10;9.37;;;;;;;;;;5067690;28;20150;-59
2024/01/01 05:00:34;;;;;;;24.73;9.43;;;;;;;;;;5067643;28;20028;-59
2024/01/01 05:02:59;;;;;;;21.33;9.30;;;;;;;;;;5062173;28;20020;-58
2024/01/01 05:05:25;;;;;;;23.10;9.35;;;;;;;;;;5073703;28;20031;-58
2024/01/01 05:07:52;;;;;;;21.47;8.37;;;;;;;;;;5073405;28;20538;-58
2024/01/01 05:10:17;;;;;;;21.98;8.55;;;;;;;;;;5073436;28;20044;-58
2024/01/01 05:12:43;;;;;;;20.10;8.30;;;;;;;;;;5070697;28;20066;-58
2024/01/01 05:15:11;;;;;;;19.48;8.45;;;;;;;;;;5075501;28;20017;-59
2024/01/01 05:17:36;;;;;;;22.92;7.75;;;;;;;;;;5075041;28;20080;-58
2024/01/01 05:20:02;;;;;;;18.67;7.93;;;;;;;;;;5072705;28;20439;-58
2024/01/01 05:22:27;;;;;;;19.50;7.13;;;;;;;;;;5072622;28;20031;-57
2024/01/01 05:24:52;;;;;;;19.40;7.10;;;;;;;;;;5073083;28;20040;-58
2024/01/01 05:27:17;;;;;;;17.73;6.05;;;;;;;;;;5070505;28;20059;-58
2024/01/01 05:29:43;;;;;;;17.05;5.90;;;;;;;;;;5070030;28;20032;-58
2024/01/01 05:32:08;;;;;;;14.75;6.00;;;;;;;;;;5061794;28;20067;-58
2024/01/01 05:34:34;;;;;;;16.83;5.90;;;;;;;;;;5072137;28;20024;-59
2024/01/01 05:36:59;;;;;;;15.25;5.78;;;;;;;;;;5067105;28;20048;-58
2024/01/01 05:39:24;;;;;;;16.17;6.30;;;;;;;;;;5071738;28;20024;-58
2024/01/01 05:41:50;;;;;;;15.67;6.30;;;;;;;;;;5074467;28;20023;-58
2024/01/01 05:44:15;;;;;;;14.90;6.07;;;;;;;;;;5067646;28;20031;-59
2024/01/01 05:46:40;;;;;;;17.23;6.28;;;;;;;;;;5072121;28;20435;-58
2024/01/01 05:49:05;;;;;;;15.93;5.80;;;;;;;;;;5071623;28;20023;-58
2024/01/01 05:51:30;;;;;;;15.50;6.47;;;;;;;;;;5068663;28;20023;-59
2024/01/01 05:53:57;;;;;;;15.05;5.88;;;;;;;;;;5062394;28;20087;-58
2024/01/01 05:56:23;;;;;;;18.60;6.10;;;;;;;;;;5071616;28;20074;-60
2024/01/01 05:58:48;;;;;;;17.33;6.38;;;;;;;;;;5071938;28;20024;-60
2024/01/01 06:01:13;;;;;;;13.65;5.78;;;;;;;;;;5070305;28;20023;-57
2024/01/01 06:03:38;;;;;;;14.68;6.13;;;;;;;;;;5088962;28;20035;-57
2024/01/01 06:06:07;;;;;;;15.90;6.57;;;;;;;;;;5089175;28;20020;-59
2024/01/01 06:08:33;;;;;;;15.52;6.28;;;;;;;;;;5067889;28;20488;-60
2024/01/01 06:10:58;;;;;;;17.33;6.35;;;;;;;;;;5068533;28;20361;-59
2024/01/01 06:13:24;;;;;;;14.33;5.73;;;;;;;;;;5069555;28;20052;-57
2024/01/01 06:15:50;;;;;;;13.98;5.60;;;;;;;;;;5071944;28;20028;-59
2024/01/01 06:18:15;;;;;;;14.38;6.10;;;;;;;;;;5070822;28;20112;-59
2024/01/01 06:20:40;;;;;;;22.65;7.22;;;;;;;;;;5071068;28;20012;-59
2024/01/01 06:23:05;;;;;;;14.55;6.25;;;;;;;;;;5068406;28;20122;-60
2024/01/01 06:25:31;;;;;;;17.33;6.28;;;;;;;;;;5068400;28;20494;-58
2024/01/01 06:27:56;;;;;;;19.75;7.30;;;;;;;;;;5071069;28;20511;-58
2024/01/01 06:30:22;;;;;;;14.10;6.25;;;;;;;;;;5071063;28;20021;-59
2024/01/01 06:32:47;;;;;;;19.02;6.43;;;;;;;;;;5064572;28;20118;-58
2024/01/01 06:35:12;;;;;;;17.87;6.57;;;;;;;;;;5064717;28;20033;-59
2024/01/01 06:37:38;;;;;;;15.03;6.30;;;;;;;;;;5071136;28;20020;-59
2024/01/01 06:40:04;;;;;;;18.35;6.57;;;;;;;;;;5063276;28;20021;-58
2024/01/01 06:42:29;;;;;;;14.70;6.30;;;;;;;;;;5064058;28;20511;-60
2024/01/01 06:44:57;;;;;;;17.52;6.65;;;;;;;;;;5070887;28;20016;-60
2024/01/01 06:47:23;;;;;;;18.52;7.03;;;;;;;;;;5070823;28;20100;-59
2024/01/01 06:49:48;;;;;;;17.17;6.90;;;;;;;;;;5070967;28;20096;-59
2024/01/01 06:52:13;;;;;;;18.42;7.15;;;;;;;;;;5068920;28;20024;-59
2024/01/01 06:54:39;;;;;;;16.08;7.13;;;;;;;;;;5070772;28;20040;-59
2024/01/01 06:57:04;;;;;;;17.95;6.85;;;;;;;;;;5070706;28;20096;-59
2024/01/01 06:59:29;;;;;;;17.23;6.82;;;;;;;;;;5070762;28;20055;-59
2024/01/01 07:01:57;;;;;;;18.98;6.60;;;;;;;;;;5069066;28;20040;-59
2024/01/01 07:04:23;;;;;;;17.10;7.00;;;;;;;;;;5071387;28;20020;-59
2024/01/01 07:06:48;;;;;;;17.57;6.53;;;;;;;;;;5070774;28;20028;-59
2024/01/01 07:09:13;;;;;;;18.33;6.90;;;;;;;;;;5065520;28;20104;-59
2024/01/01 07:11:38;;;;;;;18.77;6.07;;;;;;;;;;5070116;28;20050;-59
2024/01/01 07:14:03;;;;;;;17.50;6.70;;;;;;;;;;5070085;28;20028;-59
2024/01/01 07:16:28;;;;;;;18.08;6.47;;;;;;;;;;5067265;28;20040;-59
2024/01/01 07:18:53;;;;;;;14.40;6.17;;;;;;;;;;5062414;28;20419;-59
2024/01/01 07:21:19;;;;;;;14.73;5.88;;;;;;;;;;5069880;28;20024;-59
2024/01/01 07:23:44;;;;;;;15.27;5.68;;;;;;;;;;5064157;28;20385;-59
2024/01/01 07:26:09;;;;;;;16.53;5.97;;;;;;;;;;5071462;28;20104;-59
2024/01/01 07:28:34;;;;;;;13.80;5.57;;;;;;;;;;5068415;28;20500;-59
2024/01/01 07:30:59;;;;;;;15.13;5.43;;;;;;;;;;5071525;28;20044;-58
2024/01/01 07:33:24;;;;;;;14.87;5.43;;;;;;;;;;5067141;28;20086;-60
2024/01/01 07:35:50;;;;;;;11.02;4.28;;;;;;;;;;5070813;28;20028;-59
2024/01/01 07:38:15;;;;;;;12.27;4.50;;;;;;;;;;5066401;28;20016;-60
2024/01/01 07:40:41;;;;;;;13.18;4.80;;;;;;;;;;5074142;28;20020;-58
2024/01/01 07:43:06;;;;;;;15.85;5.80;;;;;;;;;;5076043;28;20036;-59
2024/01/01 07:45:31;;;;;;;15.85;5.93;;;;;;;;;;5067898;28;20036;-59
2024/01/01 07:47:57;;;;;;;12.98;5.20;;;;;;;;;;5062350;28;20028;-59
2024/01/01 07:50:22;;;;;;;12.65;5.10;;;;;;;;;;5067505;28;20024;-59
2024/01/01 07:52:47;;;;;;;13.05;5.18;;;;;;;;;;5072462;28;20017;-59
2024/01/01 07:55:13;;;;;;;12.35;4.72;;;;;;;;;;5074243;28;20040;-59
2024/01/01 07:57:39;;;;;;;14.90;5.40;;;;;;;;;;5070803;28;20089;-59
2024/01/01 08:00:05;;;;;;;14.95;5.78;;;;;;;;;;5073671;28;20008;-59
2024/01/01 08:02:30;;;;;;;14.63;5.43;;;;;;;;;;5070550;28;20019;-59
2024/01/01 08:04:56;;;;;;;12.95;5.22;;;;;;;;;;5077453;28;20374;-59
2024/01/01 08:07:22;;;;;;;14.27;5.32;;;;;;;;;;5073913;28;20036;-60
2024/01/01 08:09:47;;;;;;;11.85;4.97;;;;;;;;;;5071525;28;21298;-59
2024/01/01 08:12:12;;;;;;;12.93;5.28;;;;;;;;;;5072970;28;20020;-59
2024/01/01 08:14:40;;;;;;;11.75;4.82;;;;;;;;;;5066294;28;20083;-60
2024/01/01 08:17:05;;;;;;;12.52;5.30;;;;;;;;;;5066366;28;20376;-59
2024/01/01 08:19:30;;;;;;;14.67;4.87;;;;;;;;;;5075096;28;20465;-59
2024/01/01 08:21:55;;;;;;;11.73;5.13;;;;;;;;;;5069999;28;20029;-59
2024/01/01 08:24:21;;;;;;;11.88;4.80;;;;;;;;;;5054966;28;20033;-59
2024/01/01 08:26:46;;;;;;;13.48;5.40;;;;;;;;;;5072837;28;20036;-59
2024/01/01 08:29:12;;;;;;;13.10;5.20;;;;;;;;;;5070195;28;20477;-59
2024/01/01 08:31:37;;;;;;;13.20;4.75;;;;;;;;;;5060794;28;20108;-58
2024/01/01 08:34:02;;;;;;;11.52;4.53;;;;;;;;;;5064998;28;20021;-59
2024/01/01 08:36:27;;;;;;;11.98;4.00;;;;;;;;;;5070004;28;20036;-60
2024/01/01 08:38:53;;;;;;;13.63;4.72;;;;;;;;;;5061419;28;20442;-59
2024/01/01 08:41:18;;;;;;;11.27;4.20;;;;;;;;;;5052166;28;20021;-60
2024/01/01 08:43:43;;;;;;;9.85;3.55;;;;;;;;;;5055255;28;20033;-61
2024/01/01 08:46:08;;;;;;;9.70;3.90;;;;;;;;;;5068531;28;20488;-59
2024/01/01 08:48:33;;;;;;;8.40;3.45;;;;;;;;;;5068239;28;20035;-59
2024/01/01 08:50:58;;;;;;;11.67;3.10;;;;;;;;;;5052303;28;20124;-59
2024/01/01 08:53:24;;;;;;;7.73;2.80;;;;;;;;;;5067753;28;20474;-59
2024/01/01 08:55:49;;;;;;;8.05;2.97;;;;;;;;;;5072449;28;20549;-60
2024/01/01 08:58:14;;;;;;;8.73;2.77;;;;;;;;;;5067742;28;20020;-59
2024/01/01 09:00:39;;;;;;;7.35;2.65;;;;;;;;;;5064121;28;20025;-60
2024/01/01 09:03:05;;;;;;;8.30;2.53;;;;;;;;;;5063159;28;20488;-59
2024/01/01 09:05:30;;;;;;;8.20;2.88;;;;;;;;;;5059737;28;20032;-60
2024/01/01 09:07:55;;;;;;;10.67;2.90;;;;;;;;;;5059137;28;20016;-61
2024/01/01 09:10:20;;;;;;;8.23;3.07;;;;;;;;;;5064383;28;20031;-61
2024/01/01 09:12:46;;;;;;;6.88;2.10;;;;;;;;;;5061464;28;20046;-59
2024/01/01 09:15:12;;;;;;;7.70;2.10;;;;;;;;;;5071909;28;20012;-59
2024/01/01 09:17:37;;;;;;;7.05;2.10;;;;;;;;;;5075935;28;20025;-58
2024/01/01 09:20:03;;;;;;;8.32;2.03;;;;;;;;;;5063288;28;20438;-58
2024/01/01 09:22:28;;;;;;;7.00;2.25;;;;;;;;;;5063140;28;20021;-57
2024/01/01 09:24:53;;;;;;;9.63;2.15;;;;;;;;;;5022444;28;1070181;-58
2024/01/01 09:27:18;;;;;;;5.87;1.93;;;;;;;;;;5070321;28;20086;-58
2024/01/01 09:29:44;;;;;;;7.50;2.03;;;;;;;;;;5072108;28;20020;-59
2024/01/01 09:32:09;;;;;;;7.88;2.28;;;;;;;;;;5071781;28;20070;-58
2024/01/01 09:34:34;;;;;;;6.10;2.17;;;;;;;;;;5063086;28;20029;-58
2024/01/01 09:36:59;;;;;;;10.23;2.10;;;;;;;;;;5052009;28;20499;-58
2024/01/01 09:39:25;;;;;;;8.77;2.40;;;;;;;;;;5052082;28;20096;-58
2024/01/01 09:41:52;;;;;;;7.53;2.10;;;;;;;;;;5051771;28;20021;-57
2024/01/01 09:44:17;;;;;;;6.38;1.95;;;;;;;;;;5068931;28;20017;-58
2024/01/01 09:46:42;;;;;;;7.28;1.90;;;;;;;;;;5071787;28;20028;-60
2024/01/01 09:49:07;;;;;;;6.93;1.85;;;;;;;;;;5071916;28;20476;-60
2024/01/01 09:51:37;;;;;;;7.82;1.83;;;;;;;;;;5072021;28;20051;-60
2024/01/01 09:54:02;;;;;;;8.07;2.10;;;;;;;;;;5070835;28;20166;-57
2024/01/01 09:56:27;;;;;;;8.00;2.40;;;;;;;;;;5071910;28;20099;-58
2024/01/01 09:58:53;;;;;;;6.80;1.70;;;;;;;;;;5068778;28;20447;-60
2024/01/01 10:01:21;;;;;;;5.90;1.70;;;;;;;;;;5071569;28;20017;-60
2024/01/01 10:04:07;;;;;;;8.73;1.85;;;;;;;;;;5071004;28;20093;-60
2024/01/01 10:06:34;;;;;;;7.13;2.10;;;;;;;;;;5070001;28;20024;-60
2024/01/01 10:09:09;;;;;;;8.20;1.95;;;;;;;;;;5071523;28;20021;-60
2024/01/01 10:11:34;;;;;;;5.47;1.48;;;;;;;;;;5071221;28;20029;-60
2024/01/01 10:14:07;;;;;;;7.55;1.58;;;;;;;;;;5069928;28;20047;-61
2024/01/01 10:16:32;;;;;;;7.80;1.60;;;;;;;;;;5071614;28;20024;-59
2024/01/01 10:18:58;;;;;;;6.38;1.60;;;;;;;;;;5071114;28;20077;-60
2024/01/01 10:21:28;;;;;;;6.15;1.50;;;;;;;;;;5070871;28;20028;-59
2024/01/01 10:23:53;;;;;;;7.03;1.70;;;;;;;;;;5070964;28;20029;-60
2024/01/01 10:26:18;;;;;;;5.40;1.50;;;;;;;;;;5071282;28;20464;-60
2024/01/01 10:28:43;;;;;;;7.60;1.60;;;;;;;;;;5070782;28;20027;-59
2024/01/01 10:31:12;;;;;;;8.32;1.40;;;;;;;;;;5066433;28;20032;-59
2024/01/01 10:33:38;;;;;;;6.63;1.52;;;;;;;;;;5070956;28;20028;-59
2024/01/01 10:36:03;;;;;;;5.85;1.40;;;;;;;;;;5071010;28;20060;-59
2024/01/01 10:38:30;;;;;;;5.07;1.10;;;;;;;;;;5071000;28;20048;-59
2024/01/01 10:40:56;;;;;;;5.75;1.50;;;;;;;;;;5070421;28;20557;-60
2024/01/01 10:43:30;;;;;;;5.95;1.40;;;;;;;;;;5063513;28;20200;-58
2024/01/01 10:46:03;;;;;;;5.60;1.30;;;;;;;;;;5063400;28;20100;-58
2024/01/01 10:48:28;;;;;;;7.50;1.27;;;;;;;;;;5071364;28;20024;-58
2024/01/01 10:51:01;;;;;;;6.57;1.80;;;;;;;;;;5071017;28;20434;-57
2024/01/01 10:53:39;;;;;;;5.95;1.10;;;;;;;;;;5070709;28;20021;-59
2024/01/01 10:56:20;;;;;;;6.32;1.58;;;;;;;;;;5069805;28;20024;-61
2024/01/01 10:59:04;;;;;;;6.10;1.30;;;;;;;;;;5070734;28;20480;-58
2024/01/01 11:01:31;;;;;;;5.60;1.13;;;;;;;;;;5070684;28;20107;-60
2024/01/01 11:03:56;;;;;;;4.15;1.02;;;;;;;;;;5051283;28;20055;-59
2024/01/01 11:06:27;;;;;;;5.77;1.60;;;;;;;;;;5051891;28;20049;-59
2024/01/01 11:08:54;;;;;;;6.57;1.10;;;;;;;;;;5071674;28;20067;-60
2024/01/01 11:11:27;;;;;;;7.82;1.50;;;;;;;;;;5071107;28;20016;-60
2024/01/01 11:13:53;;;;;;;6.93;1.33;;;;;;;;;;5056278;28;20094;-59
2024/01/01 11:16:19;;;;;;;4.25;1.30;;;;;;;;;;5059105;28;20472;-59
2024/01/01 11:18:44;;;;;;;4.82;1.23;;;;;;;;;;5073804;28;20029;-59
2024/01/01 11:21:09;;;;;;;7.93;1.20;;;;;;;;;;5072398;28;20021;-60
2024/01/01 11:23:42;;;;;;;5.67;1.53;;;;;;;;;;5071769;28;20043;-61
2024/01/01 11:26:31;;;;;;;8.23;1.40;;;;;;;;;;5071144;28;20435;-60
2024/01/01 11:29:16;;;;;;;5.28;1.23;;;;;;;;;;5064740;28;20499;-60
2024/01/01 11:31:41;;;;;;;5.05;1.30;;;;;;;;;;5070102;28;20016;-60
2024/01/01 11:34:10;;;;;;;7.45;1.20;;;;;;;;;;5070087;28;20032;-59
2024/01/01 11:36:40;;;;;;;5.65;1.20;;;;;;;;;;5051687;28;20498;-59
2024/01/01 11:39:06;;;;;;;3.92;0.90;;;;;;;;;;5050743;28;20032;-59
2024/01/01 11:41:32;;;;;;;4.72;0.90;;;;;;;;;;5052840;28;20480;-59
2024/01/01 11:44:10;;;;;;;6.40;1.08;;;;;;;;;;5058826;28;20048;-59
2024/01/01 11:46:36;;;;;;;6.78;1.23;;;;;;;;;;5069656;28;20036;-59
2024/01/01 11:49:01;;;;;;;6.15;1.60;;;;;;;;;;5070455;28;20040;-59
2024/01/01 11:51:29;;;;;;;6.38;1.90;;;;;;;;;;5069804;28;20021;-60
2024/01/01 11:54:10;;;;;;;4.82;1.30;;;;;;;;;;5069929;28;20366;-59
2024/01/01 11:56:36;;;;;;;7.07;1.70;;;;;;;;;;5069614;28;20052;-59
2024/01/01 11:59:02;;;;;;;5.55;1.10;;;;;;;;;;5069579;28;20035;-58
2024/01/01 12:01:28;;;;;;;7.50;1.50;;;;;;;;;;5069856;28;20542;-59
2024/01/01 12:03:53;;;;;;;5.45;1.30;;;;;;;;;;5067594;28;20024;-59
2024/01/01 12:06:18;;;;;;;7.53;1.10;;;;;;;;;;5060497;28;20073;-60
2024/01/01 12:08:43;;;;;;;7.10;1.10;;;;;;;;;;5055316;28;20029;-59
2024/01/01 12:11:08;;;;;;;6.78;1.33;;;;;;;;;;5063985;28;20017;-60
2024/01/01 12:13:33;;;;;;;3.45;0.95;;;;;;;;;;5069822;28;20392;-59
2024/01/01 12:16:15;;;;;;;4.68;0.90;;;;;;;;;;5061578;28;20032;-59
2024/01/01 12:18:40;;;;;;;3.22;0.70;;;;;;;;;;5054094;28;20036;-59
2024/01/01 12:21:05;;;;;;;6.53;1.10;;;;;;;;;;5053255;28;20025;-58
2024/01/01 12:23:30;;;;;;;4.85;1.00;;;;;;;;;;5055307;28;20082;-57
2024/01/01 12:26:01;;;;;;;6.60;1.17;;;;;;;;;;5068696;28;20020;-59
2024/01/01 12:28:26;;;;;;;6.63;1.08;;;;;;;;;;5068058;28;20020;-59
2024/01/01 12:30:53;;;;;;;4.93;0.80;;;;;;;;;;5070367;28;20089;-59
2024/01/01 12:33:18;;;;;;;5.78;0.90;;;;;;;;;;5072685;28;20036;-58
2024/01/01 12:35:43;;;;;;;4.45;0.70;;;;;;;;;;5061290;28;20019;-60
2024/01/01 12:38:08;;;;;;;3.28;0.70;;;;;;;;;;5056308;28;20017;-59
2024/01/01 12:40:33;;;;;;;4.22;0.85;;;;;;;;;;5063213;28;20066;-59
2024/01/01 12:42:59;;;;;;;4.78;0.90;;;;;;;;;;5067618;28;20013;-59
2024/01/01 12:45:25;;;;;;;4.53;0.85;;;;;;;;;;5053754;28;20028;-59
2024/01/01 12:47:50;;;;;;;;;;;;;;;;;;5057720;28;20024;-59
2024/01/01 12:50:17;;;;;;;3.40;0.60;;;;;;;;;;5054282;28;19908;-59
2024/01/01 12:52:42;;;;;;;4.13;0.77;;;;;;;;;;5058816;28;20512;-61
2024/01/01 12:55:09;;;;;;;5.15;1.00;;;;;;;;;;5064083;28;20036;-59
2024/01/01 12:57:34;;;;;;;4.03;0.80;;;;;;;;;;5062775;28;20031;-60
2024/01/01 12:59:59;;;;;;;4.82;0.90;;;;;;;;;;5047873;28;20016;-59
2024/01/01 13:02:25;;;;;;;5.78;0.82;;;;;;;;;;5066540;28;20067;-58
2024/01/01 13:04:50;;;;;;;2.72;0.70;;;;;;;;;;5069504;28;20644;-57
2024/01/01 13:07:15;;;;;;;4.30;0.90;;;;;;;;;;5060783;28;20691;-57
2024/01/01 13:09:40;;;;;;;4.60;1.10;;;;;;;;;;5056909;28;20067;-60
2024/01/01 13:12:05;;;;;;;4.20;1.02;;;;;;;;;;5062679;28;20103;-59
2024/01/01 13:14:31;;;;;;;5.87;0.77;;;;;;;;;;5071012;28;20075;-58
2024/01/01 13:16:58;;;;;;;6.97;0.80;;;;;;;;;;5069188;28;20028;-59
2024/01/01 13:19:26;;;;;;;4.78;0.88;;;;;;;;;;5051468;28;20028;-58
2024/01/01 13:21:51;;;;;;;3.70;0.88;;;;;;;;;;5048850;28;20492;-57
2024/01/01 13:24:17;;;;;;;4.38;0.88;;;;;;;;;;5069637;28;20043;-59
2024/01/01 13:26:42;;;;;;;4.07;0.65;;;;;;;;;;5068030;28;20521;-58
2024/01/01 13:29:07;;;;;;;2.97;0.87;;;;;;;;;;5061335;28;20024;-58
2024/01/01 13:31:32;;;;;;;3.83;0.60;;;;;;;;;;5050029;28;20033;-58
2024/01/01 13:33:57;;;;;;;4.82;0.77;;;;;;;;;;5053335;28;20029;-58
2024/01/01 13:36:22;;;;;;;3.80;0.90;;;;;;;;;;5058064;28;20375;-59
2024/01/01 13:38:48;;;;;;;6.13;0.97;;;;;;;;;;5065459;28;20043;-57
2024/01/01 13:41:13;;;;;;;4.90;0.70;;;;;;;;;;5063501;28;20032;-59
2024/01/01 13:43:38;;;;;;;2.33;0.60;;;;;;;;;;5048522;28;20099;-58
2024/01/01 13:46:03;;;;;;;3.95;0.80;;;;;;;;;;5052034;28;20430;-59
2024/01/01 13:48:29;;;;;;;4.93;0.88;;;;;;;;;;5068331;28;20054;-58
2024/01/01 13:50:56;;;;;;;3.97;0.70;;;;;;;;;;5062783;28;20028;-58
2024/01/01 13:53:21;;;;;;;3.22;0.70;;;;;;;;;;5056814;28;20435;-59
2024/01/01 13:55:47;;;;;;;4.43;0.70;;;;;;;;;;5063684;28;20145;-60
2024/01/01 13:58:12;;;;;;;3.40;0.65;;;;;;;;;;5049396;28;20028;-59
2024/01/01 14:00:37;;;;;;;3.83;0.80;;;;;;;;;;5052314;28;20175;-57
2024/01/01 14:03:03;;;;;;;3.27;0.60;;;;;;;;;;5060989;28;20556;-58
2024/01/01 14:05:28;;;;;;;5.97;0.88;;;;;;;;;;5068191;28;20701;-58
2024/01/01 14:07:54;;;;;;;3.70;0.60;;;;;;;;;;5065301;28;20028;-60
2024/01/01 14:10:19;;;;;;;6.65;0.80;;;;;;;;;;5062340;28;20050;-59
2024/01/01 14:12:45;;;;;;;3.10;0.60;;;;;;;;;;5053245;28;20163;-59
2024/01/01 14:15:10;;;;;;;4.13;0.85;;;;;;;;;;5055754;28;20032;-58
2024/01/01 14:17:35;;;;;;;6.97;1.00;;;;;;;;;;5064094;28;20028;-59
2024/01/01 14:20:03;;;;;;;4.32;0.93;;;;;;;;;;5070199;28;20452;-59
2024/01/01 14:22:28;;;;;;;4.40;0.73;;;;;;;;;;5058747;28;20032;-60
2024/01/01 14:24:53;;;;;;;6.35;0.82;;;;;;;;;;5062152;28;20045;-58